Portada
METAR-TAF:

METAR-TAF

Aeropuertos :

Pekín, China

Aeropuerto Internacional de Pekín-Capital

latitud: 39-56N, longitud: 116-17E, altitud: 55 m

Observación

El informe se hizo hace 29 minutos, a las 01:00 UTC
Viento 12 kt del norte-noroeste
Temperatura -7°C
Humedad 18%
Presión 1034 hPa
Visibilidad 10 km o más
sin nubes por debajo de 1500 m y sin presencia de cumulonimbus.

METAR: ZBAA 240100Z 33006MPS CAVOK M07/M27 Q1034 NOSIG

Hora: 09:29 (01:29 UTC)

Pronóstico

El informe se hizo hace 4 horas y 9 minutos, a las 21:20 UTC
Pronóstico válido del 24 a las 00 UTC al 24 a las 24 UTC
Viento 8 kt del noroeste
Visibilidad 10 km o más
sin nubes por debajo de 1500 m y sin presencia de cumulonimbus.

TAF: ZBAA 232120Z 2400/2424 32004MPS CAVOK TXM04/07Z TNM14/21Z

Observaciones y pronósticos meteorológicos de más de 4000 aeropuertos (mensajes METAR y TAF).

Los puntos amarillos y rojos representan las estaciones disponibles.

Ponga el ratón en el punto deseado para ver el nombre de la estación.

Haga clic para ver las observaciones y los pronósticos meteorológicos.

Para cambiar el mapa : haga clic en los botones verdes con una cruz de color negro para hacer un zoom, en el botón verde con un guión para alejar o en las flechas verdes para mapas adyacentes.


METAR-TAF: